Time;durP1;ratioP1;P1;durP2;ratioP2;P2;SDS_P1;SDS_P2;PMS_P1;PMS_P2;Temp;Humidity;BMP_temperature;BMP_pressure;BME280_temperature;BME280_humidity;BME280_pressure;Samples;Min_cycle;Max_cycle;Signal;HPM_P1;HPM_P2
2022/12/09 00:01:26;;;;;;;28.10;21.77;;;;;;;4.00;72.17;100580.69;5032414;28;20087;-60
2022/12/09 00:03:53;;;;;;;25.17;21.10;;;;;;;3.97;72.49;100576.50;5019008;28;20478;-60
2022/12/09 00:06:21;;;;;;;25.40;21.58;;;;;;;3.94;72.50;100574.19;5029679;28;20035;-60
2022/12/09 00:08:48;;;;;;;25.80;21.88;;;;;;;3.96;72.45;100576.69;5040191;28;20025;-58
2022/12/09 00:11:13;;;;;;;25.83;22.17;;;;;;;3.97;72.26;100579.25;5045577;28;20424;-60
2022/12/09 00:13:39;;;;;;;24.63;21.42;;;;;;;4.01;72.30;100577.75;5029422;28;20062;-61
2022/12/09 00:16:11;;;;;;;27.23;23.52;;;;;;;3.99;72.51;100573.53;5030860;28;20060;-60
2022/12/09 00:18:37;;;;;;;26.08;22.63;;;;;;;4.00;72.49;100570.53;5027560;28;20033;-60
2022/12/09 00:21:19;;;;;;;27.33;22.48;;;;;;;4.06;72.68;100577.94;5025669;28;20037;-60
2022/12/09 00:23:45;;;;;;;25.92;22.25;;;;;;;4.03;72.13;100570.13;5030923;28;20022;-58
2022/12/09 00:26:11;;;;;;;26.42;23.33;;;;;;;4.06;72.25;100569.69;5029074;28;20465;-60
2022/12/09 00:28:37;;;;;;;32.58;25.42;;;;;;;4.01;72.67;100576.88;5029725;28;20025;-59
2022/12/09 00:31:03;;;;;;;28.58;23.85;;;;;;;4.00;72.70;100570.53;5030445;28;20442;-60
2022/12/09 00:33:30;;;;;;;30.27;24.67;;;;;;;4.03;72.97;100572.88;5029728;28;20075;-59
2022/12/09 00:36:03;;;;;;;31.15;24.42;;;;;;;4.01;72.88;100575.00;5027813;28;20103;-60
2022/12/09 00:38:28;;;;;;;30.40;24.25;;;;;;;3.97;72.69;100571.00;5016807;28;20041;-60
2022/12/09 00:40:53;;;;;;;30.88;24.83;;;;;;;3.99;72.76;100568.03;5029045;28;20084;-59
2022/12/09 00:43:19;;;;;;;29.55;24.55;;;;;;;4.00;72.80;100575.19;5030263;28;20039;-59
2022/12/09 00:45:44;;;;;;;30.75;24.83;;;;;;;4.04;72.54;100573.69;5029721;28;20029;-59
2022/12/09 00:48:09;;;;;;;29.75;25.35;;;;;;;4.04;72.57;100574.53;5028928;28;20025;-59
2022/12/09 00:50:34;;;;;;;30.80;25.55;;;;;;;4.03;72.79;100575.59;5027284;28;20041;-59
2022/12/09 00:53:00;;;;;;;33.72;25.40;;;;;;;4.06;72.86;100579.84;5010141;28;20092;-59
2022/12/09 00:55:25;;;;;;;34.05;25.90;;;;;;;4.04;72.64;100576.44;5025362;28;20128;-60
2022/12/09 00:57:50;;;;;;;32.72;26.15;;;;;;;4.02;72.30;100573.94;5029887;28;20049;-60
2022/12/09 01:00:16;;;;;;;30.83;25.05;;;;;;;4.04;72.53;100571.78;5029937;28;20025;-60
2022/12/09 01:02:41;;;;;;;34.70;26.73;;;;;;;4.01;73.04;100575.00;5029110;28;20033;-60
2022/12/09 01:05:07;;;;;;;33.03;26.48;;;;;;;4.00;72.97;100576.03;5029183;28;20477;-60
2022/12/09 01:07:32;;;;;;;33.28;25.73;;;;;;;3.99;73.09;100568.88;5029875;28;20032;-60
2022/12/09 01:09:57;;;;;;;36.60;26.65;;;;;;;4.00;72.93;100566.97;5018465;28;20380;-60
2022/12/09 01:12:23;;;;;;;33.90;27.83;;;;;;;3.98;73.14;100569.09;5028320;28;20489;-60
2022/12/09 01:14:48;;;;;;;39.47;28.42;;;;;;;3.98;73.26;100572.69;5029800;28;20030;-60
2022/12/09 01:17:13;;;;;;;42.00;28.77;;;;;;;4.00;73.00;100569.72;5028864;28;20025;-60
2022/12/09 01:19:39;;;;;;;39.15;29.70;;;;;;;4.00;73.46;100576.03;5030119;28;20046;-60
2022/12/09 01:22:10;;;;;;;39.20;29.17;;;;;;;3.97;73.17;100575.63;5029010;28;20029;-60
2022/12/09 01:24:36;;;;;;;37.47;28.05;;;;;;;3.97;73.41;100572.88;5030022;28;20017;-60
2022/12/09 01:27:01;;;;;;;35.53;28.80;;;;;;;3.97;73.41;100578.38;5021170;28;20052;-60
2022/12/09 01:29:26;;;;;;;36.55;29.17;;;;;;;4.00;73.38;100584.28;5029246;28;20033;-60
2022/12/09 01:31:53;;;;;;;37.92;28.42;;;;;;;3.97;73.72;100582.00;5029418;28;20104;-60
2022/12/09 01:34:19;;;;;;;42.42;29.77;;;;;;;3.97;73.20;100586.59;5029364;28;20033;-59
2022/12/09 01:36:46;;;;;;;42.78;29.85;;;;;;;3.98;73.47;100583.66;5028792;28;20404;-60
2022/12/09 01:39:12;;;;;;;37.67;29.55;;;;;;;4.00;73.26;100581.53;5032274;28;20384;-60
2022/12/09 01:41:37;;;;;;;44.90;31.95;;;;;;;3.99;73.70;100579.00;5032359;28;20032;-60
2022/12/09 01:44:10;;;;;;;41.00;30.80;;;;;;;3.98;73.37;100583.66;5024791;28;20029;-60
2022/12/09 01:46:38;;;;;;;40.90;31.60;;;;;;;3.99;73.53;100587.25;5013324;28;20088;-60
2022/12/09 01:49:06;;;;;;;44.42;32.58;;;;;;;4.00;73.32;100580.69;5013451;28;20413;-60
2022/12/09 01:51:31;;;;;;;41.88;30.17;;;;;;;4.02;73.39;100582.19;5012730;28;20038;-60
2022/12/09 01:53:57;;;;;;;42.97;31.45;;;;;;;4.03;73.58;100581.09;5013354;28;20026;-60
2022/12/09 01:56:28;;;;;;;43.70;30.77;;;;;;;4.03;73.86;100575.59;5012958;28;20401;-60
2022/12/09 01:58:57;;;;;;;43.40;31.00;;;;;;;4.03;73.51;100583.00;5019784;28;20030;-60
2022/12/09 02:01:22;;;;;;;44.50;31.40;;;;;;;4.04;73.46;100577.28;5015514;28;20041;-60
2022/12/09 02:03:48;;;;;;;46.38;31.35;;;;;;;4.04;73.33;100587.44;5012826;28;20034;-60
2022/12/09 02:06:14;;;;;;;43.35;31.02;;;;;;;4.04;73.63;100582.78;5012726;28;20040;-61
2022/12/09 02:08:40;;;;;;;47.42;32.30;;;;;;;4.02;73.36;100584.91;5012754;28;20026;-60
2022/12/09 02:11:17;;;;;;;46.78;31.60;;;;;;;4.06;74.09;100580.69;5026929;28;20036;-60
2022/12/09 02:13:58;;;;;;;44.47;33.47;;;;;;;4.07;73.94;100587.00;5030875;28;20104;-60
2022/12/09 02:16:30;;;;;;;45.65;31.95;;;;;;;4.05;73.63;100580.88;5030183;28;20017;-60
2022/12/09 02:19:10;;;;;;;47.42;32.42;;;;;;;4.03;73.61;100586.59;5031450;28;20082;-60
2022/12/09 02:21:42;;;;;;;50.45;33.63;;;;;;;4.03;73.92;100589.34;5032788;28;20034;-60
2022/12/09 02:24:21;;;;;;;51.40;34.40;;;;;;;4.02;73.76;100589.56;5033032;28;20167;-60
2022/12/09 02:27:02;;;;;;;50.20;33.17;;;;;;;4.02;74.11;100589.56;5031608;28;20461;-60
2022/12/09 02:29:55;;;;;;;49.38;33.42;;;;;;;4.04;74.28;100577.28;5031818;28;20072;-60
2022/12/09 02:32:42;;;;;;;;;;;;;;;4.19;73.46;100579.78;5030338;28;20053;-60
2022/12/09 02:35:14;;;;;;;50.20;33.97;;;;;;;4.07;74.12;100584.25;5031627;28;20399;-60
2022/12/09 02:37:49;;;;;;;52.17;34.10;;;;;;;4.07;74.20;100576.88;5032213;28;20057;-60
2022/12/09 02:40:20;;;;;;;49.67;32.60;;;;;;;4.08;74.19;100577.69;5031270;28;20120;-60
2022/12/09 02:42:48;;;;;;;49.97;33.72;;;;;;;4.07;74.25;100579.59;5031798;28;20072;-60
2022/12/09 02:45:15;;;;;;;56.00;34.25;;;;;;;4.06;74.07;100572.44;5032048;28;20025;-60
2022/12/09 02:47:45;;;;;;;52.28;33.85;;;;;;;4.06;73.87;100579.84;5031590;28;20076;-60
2022/12/09 02:50:13;;;;;;;52.80;34.20;;;;;;;4.03;73.81;100572.88;5019589;28;20033;-60
2022/12/09 02:52:40;;;;;;;52.80;34.00;;;;;;;4.05;74.03;100565.28;5032158;28;20030;-60
2022/12/09 02:55:08;;;;;;;55.38;36.67;;;;;;;4.05;74.13;100573.50;5031322;28;20040;-60
2022/12/09 02:57:35;;;;;;;54.28;35.35;;;;;;;4.06;74.42;100569.69;5031338;28;20477;-60
2022/12/09 03:00:02;;;;;;;56.83;36.30;;;;;;;4.07;74.22;100565.88;5030625;28;20044;-60
2022/12/09 03:02:32;;;;;;;51.42;35.55;;;;;;;4.05;74.14;100573.50;5030703;28;20029;-60
2022/12/09 03:05:21;;;;;;;56.88;36.38;;;;;;;4.07;74.39;100565.03;5025802;28;20034;-60
2022/12/09 03:08:20;;;;;;;56.08;37.28;;;;;;;4.09;74.46;100562.94;5017470;28;20563;-59
2022/12/09 03:10:53;;;;;;;55.88;34.58;;;;;;;4.09;74.46;100569.25;5029910;28;20037;-59
2022/12/09 03:13:46;;;;;;;57.90;36.55;;;;;;;4.08;74.22;100573.03;5030139;28;20064;-59
2022/12/09 03:16:20;;;;;;;58.33;37.38;;;;;;;4.08;74.36;100563.97;5031338;28;20033;-59
2022/12/09 03:18:53;;;;;;;61.13;36.83;;;;;;;4.08;74.20;100566.72;5028960;28;20492;-59
2022/12/09 03:21:21;;;;;;;61.67;37.08;;;;;;;4.08;74.29;100559.31;5026484;28;20246;-59
2022/12/09 03:23:50;;;;;;;59.40;37.55;;;;;;;4.06;74.26;100564.19;5021021;28;20033;-59
2022/12/09 03:26:16;;;;;;;60.72;38.33;;;;;;;4.05;74.23;100557.03;5029579;28;20064;-60
2022/12/09 03:28:47;;;;;;;65.20;39.00;;;;;;;4.05;74.28;100554.28;5029259;28;20474;-58
2022/12/09 03:31:17;;;;;;;63.53;37.10;;;;;;;4.08;74.86;100550.25;5030484;28;20116;-59
2022/12/09 03:33:46;;;;;;;63.65;37.65;;;;;;;4.08;74.75;100539.25;5029476;28;20113;-59
2022/12/09 03:36:15;;;;;;;62.90;37.25;;;;;;;4.08;74.65;100544.75;5026705;28;20076;-60
2022/12/09 03:38:42;;;;;;;64.70;37.67;;;;;;;4.08;74.88;100545.59;5027234;28;20112;-60
2022/12/09 03:41:18;;;;;;;63.97;38.60;;;;;;;4.06;75.09;100539.47;5027198;28;20739;-60
2022/12/09 03:43:50;;;;;;;61.00;37.50;;;;;;;4.05;75.08;100540.56;5027396;28;20042;-59
2022/12/09 03:46:16;;;;;;;;;;;;;;;4.23;74.49;100536.22;5031347;28;20469;-60
2022/12/09 03:48:41;;;;;;;59.83;36.67;;;;;;;4.13;74.63;100536.72;5029778;28;19917;-59
2022/12/09 03:51:13;;;;;;;59.88;37.25;;;;;;;4.07;74.99;100538.41;5029269;28;20052;-60
2022/12/09 03:53:43;;;;;;;65.03;37.15;;;;;;;4.10;74.93;100537.97;5030063;28;20080;-60
2022/12/09 03:56:24;;;;;;;58.50;37.30;;;;;;;4.14;75.03;100544.72;5025392;28;20053;-60
2022/12/09 03:58:53;;;;;;;67.18;38.70;;;;;;;4.13;74.84;100543.03;5029588;28;20107;-60
2022/12/09 04:01:22;;;;;;;62.40;38.15;;;;;;;4.13;74.90;100553.19;5028453;28;20029;-60
2022/12/09 04:03:50;;;;;;;60.70;38.70;;;;;;;4.13;75.01;100543.03;5029697;28;20401;-59
2022/12/09 04:06:16;;;;;;;64.57;40.25;;;;;;;4.12;74.82;100548.75;5029088;28;20121;-59
2022/12/09 04:08:41;;;;;;;63.75;38.83;;;;;;;4.09;74.88;100540.97;5029714;28;20030;-60
2022/12/09 04:11:07;;;;;;;60.40;38.38;;;;;;;4.09;74.99;100540.97;5027210;28;20025;-60
2022/12/09 04:13:32;;;;;;;61.15;38.50;;;;;;;4.10;74.82;100532.50;5026350;28;20030;-60
2022/12/09 04:15:57;;;;;;;63.05;38.83;;;;;;;4.08;74.44;100529.09;5029348;28;20025;-59
2022/12/09 04:18:23;;;;;;;64.93;39.88;;;;;;;4.10;74.61;100534.41;5028933;28;20540;-59
2022/12/09 04:20:48;;;;;;;65.78;38.92;;;;;;;4.09;74.76;100532.72;5030156;28;20029;-59
2022/12/09 04:23:13;;;;;;;62.63;39.13;;;;;;;4.09;74.90;100539.06;5029133;28;20407;-59
2022/12/09 04:25:39;;;;;;;58.40;38.25;;;;;;;4.09;75.15;100536.31;5027521;28;20033;-59
2022/12/09 04:28:04;;;;;;;69.43;40.08;;;;;;;4.07;75.20;100532.91;5029041;28;20029;-59
2022/12/09 04:30:29;;;;;;;61.92;38.10;;;;;;;4.09;75.10;100536.31;5023701;28;20124;-59
2022/12/09 04:32:54;;;;;;;65.57;39.55;;;;;;;4.07;75.04;100532.91;5026092;28;20036;-59
2022/12/09 04:35:20;;;;;;;64.43;39.67;;;;;;;4.07;74.98;100527.44;5029711;28;20029;-59
2022/12/09 04:37:45;;;;;;;63.40;38.72;;;;;;;4.08;74.83;100522.78;5027657;28;20052;-60
2022/12/09 04:40:11;;;;;;;63.30;38.60;;;;;;;4.09;75.04;100530.81;5019721;28;20029;-58
2022/12/09 04:42:37;;;;;;;65.47;40.47;;;;;;;4.10;74.87;100526.16;5021364;28;20059;-59
2022/12/09 04:45:03;;;;;;;65.18;39.30;;;;;;;4.06;75.09;100528.50;5029167;28;20485;-59
2022/12/09 04:47:32;;;;;;;60.15;38.90;;;;;;;4.06;74.98;100520.25;5025248;28;20034;-59
2022/12/09 04:49:57;;;;;;;59.50;36.45;;;;;;;4.11;74.59;100528.66;5028503;28;20072;-59
2022/12/09 04:52:22;;;;;;;58.72;38.13;;;;;;;4.05;74.42;100529.56;5028473;28;20520;-59
2022/12/09 04:54:49;;;;;;;59.55;37.85;;;;;;;4.05;74.29;100534.19;5028448;28;20029;-59
2022/12/09 04:57:15;;;;;;;52.75;36.08;;;;;;;4.06;74.61;100531.25;5029531;28;20029;-59
2022/12/09 04:59:40;;;;;;;54.20;36.92;;;;;;;4.07;74.52;100535.66;5022844;28;20072;-59
2022/12/09 05:02:05;;;;;;;60.33;38.58;;;;;;;4.05;74.69;100525.94;5028596;28;20477;-59
2022/12/09 05:04:34;;;;;;;58.22;37.45;;;;;;;4.04;74.54;100532.50;5029763;28;20057;-59
2022/12/09 05:06:59;;;;;;;57.55;37.28;;;;;;;4.07;74.05;100534.81;5029154;28;20063;-59
2022/12/09 05:09:24;;;;;;;55.78;36.83;;;;;;;4.07;74.24;100532.09;5028714;28;20029;-59
2022/12/09 05:11:50;;;;;;;55.38;37.72;;;;;;;4.06;74.47;100536.72;5029609;28;20477;-59
2022/12/09 05:14:16;;;;;;;56.45;36.67;;;;;;;4.07;74.37;100527.44;5032299;28;20026;-59
2022/12/09 05:16:42;;;;;;;54.95;37.03;;;;;;;4.05;74.22;100529.56;5021912;28;20045;-59
2022/12/09 05:19:07;;;;;;;58.78;37.53;;;;;;;4.07;74.60;100534.81;5025765;28;20037;-59
2022/12/09 05:21:32;;;;;;;60.65;38.88;;;;;;;4.08;74.32;100531.84;5032961;28;20485;-59
2022/12/09 05:23:57;;;;;;;57.63;37.88;;;;;;;4.09;74.38;100530.81;5033567;28;20063;-59
2022/12/09 05:26:23;;;;;;;60.22;39.63;;;;;;;4.06;74.03;100531.25;5033632;28;20029;-59
2022/12/09 05:28:49;;;;;;;57.83;38.05;;;;;;;4.08;74.68;100528.25;5032962;28;20060;-59
2022/12/09 05:31:18;;;;;;;54.17;37.55;;;;;;;4.06;74.38;100534.00;5032954;28;20053;-59
2022/12/09 05:33:44;;;;;;;58.65;38.22;;;;;;;4.08;74.36;100529.09;5027224;28;20029;-59
2022/12/09 05:36:12;;;;;;;52.90;36.75;;;;;;;4.08;74.69;100529.09;5032214;28;20045;-60
2022/12/09 05:38:37;;;;;;;61.03;38.30;;;;;;;4.06;74.71;100531.25;5032644;28;20072;-59
2022/12/09 05:41:03;;;;;;;57.47;36.92;;;;;;;4.06;74.83;100536.72;5032572;28;20056;-59
2022/12/09 05:43:30;;;;;;;60.95;39.40;;;;;;;4.06;74.69;100534.00;5032349;28;20496;-60
2022/12/09 05:45:55;;;;;;;58.60;37.67;;;;;;;4.05;74.36;100539.69;5031870;28;20120;-59
2022/12/09 05:48:20;;;;;;;59.20;38.22;;;;;;;4.07;74.93;100532.91;5030600;28;20488;-59
2022/12/09 05:50:58;;;;;;;61.30;38.53;;;;;;;4.08;74.35;100534.59;5030875;28;20022;-59
2022/12/09 05:53:24;;;;;;;60.40;38.50;;;;;;;4.09;74.48;100529.97;5032824;28;20029;-59
2022/12/09 05:55:49;;;;;;;61.03;37.95;;;;;;;4.10;74.69;100521.50;5031207;28;20044;-59
2022/12/09 05:58:14;;;;;;;58.47;37.40;;;;;;;4.13;74.65;100525.72;5035933;28;20047;-59
2022/12/09 06:00:40;;;;;;;59.38;37.47;;;;;;;4.12;74.06;100524.84;5027618;28;20389;-59
2022/12/09 06:03:05;;;;;;;62.85;39.60;;;;;;;4.10;74.40;100524.25;5030713;28;20030;-59
2022/12/09 06:05:30;;;;;;;64.57;39.53;;;;;;;4.08;74.47;100520.88;5032272;28;20028;-60
2022/12/09 06:07:55;;;;;;;60.53;39.65;;;;;;;4.07;74.35;100521.94;5032684;28;20472;-61
2022/12/09 06:10:21;;;;;;;61.85;39.58;;;;;;;4.04;74.28;100521.53;5033121;28;20120;-61
2022/12/09 06:12:46;;;;;;;64.97;38.47;;;;;;;4.06;74.68;100524.91;5032196;28;20104;-60
2022/12/09 06:15:11;;;;;;;68.97;40.53;;;;;;;4.04;74.52;100524.28;5032215;28;20164;-60
2022/12/09 06:17:37;;;;;;;66.80;39.72;;;;;;;4.04;74.25;100514.13;5025625;28;20029;-59
2022/12/09 06:20:03;;;;;;;67.03;39.70;;;;;;;4.01;74.53;100522.81;5030070;28;20033;-60
2022/12/09 06:22:28;;;;;;;68.45;40.22;;;;;;;4.02;74.56;100523.66;5031744;28;20044;-61
2022/12/09 06:24:56;;;;;;;67.82;39.53;;;;;;;4.01;74.27;100524.69;5030383;28;20033;-60
2022/12/09 06:27:24;;;;;;;65.82;38.80;;;;;;;4.00;74.80;100523.88;5033064;28;20116;-61
2022/12/09 06:29:50;;;;;;;65.28;39.25;;;;;;;4.01;74.63;100530.19;5033099;28;20456;-61
2022/12/09 06:32:15;;;;;;;61.92;38.92;;;;;;;4.00;74.17;100521.13;5031553;28;20037;-61
2022/12/09 06:34:40;;;;;;;60.72;38.20;;;;;;;4.00;74.28;100526.59;5030612;28;20113;-61
2022/12/09 06:37:05;;;;;;;57.92;37.05;;;;;;;4.02;74.34;100532.75;5031400;28;20103;-61
2022/12/09 06:39:31;;;;;;;63.80;38.35;;;;;;;4.00;73.95;100521.13;5031583;28;20026;-61
2022/12/09 06:41:56;;;;;;;63.85;37.83;;;;;;;3.99;74.15;100519.44;5032310;28;20472;-60
2022/12/09 06:44:21;;;;;;;60.58;37.17;;;;;;;3.98;74.12;100517.75;5032078;28;20072;-61
2022/12/09 06:46:47;;;;;;;56.97;35.78;;;;;;;4.00;73.93;100520.28;5031730;28;20030;-61
2022/12/09 06:49:12;;;;;;;59.33;37.53;;;;;;;4.00;73.99;100518.38;5031692;28;20025;-61
2022/12/09 06:51:37;;;;;;;57.45;36.45;;;;;;;4.00;74.03;100514.78;5028747;28;20038;-61
2022/12/09 06:54:03;;;;;;;57.50;36.42;;;;;;;4.02;73.97;100512.69;5030292;28;20038;-61
2022/12/09 06:56:28;;;;;;;62.28;37.08;;;;;;;3.99;73.53;100516.69;5031775;28;20401;-61
2022/12/09 06:58:53;;;;;;;57.92;36.05;;;;;;;3.99;73.78;100521.34;5032123;28;20033;-60
2022/12/09 07:01:22;;;;;;;62.08;37.08;;;;;;;4.01;73.56;100525.56;5027401;28;20396;-60
2022/12/09 07:03:50;;;;;;;59.92;36.53;;;;;;;4.00;73.37;100523.03;5031591;28;20026;-61
2022/12/09 07:06:24;;;;;;;59.88;37.20;;;;;;;4.02;73.69;100521.75;5015838;28;20380;-61
2022/12/09 07:08:50;;;;;;;60.28;37.47;;;;;;;4.04;74.00;100522.38;5026427;28;20044;-61
2022/12/09 07:11:15;;;;;;;59.33;36.08;;;;;;;4.04;73.80;100527.84;5018382;28;20030;-61
2022/12/09 07:13:41;;;;;;;56.03;35.92;;;;;;;4.06;73.99;100531.25;5026505;28;20033;-60
2022/12/09 07:16:06;;;;;;;57.85;36.70;;;;;;;4.08;73.70;100531.00;5037887;28;20381;-62
2022/12/09 07:18:31;;;;;;;54.15;36.28;;;;;;;4.07;74.03;100527.44;5031433;28;20040;-61
2022/12/09 07:20:57;;;;;;;57.10;37.67;;;;;;;4.09;73.79;100536.31;5029587;28;20040;-61
2022/12/09 07:23:22;;;;;;;54.60;37.47;;;;;;;4.10;73.49;100540.72;5030884;28;20048;-61
2022/12/09 07:25:55;;;;;;;55.97;36.63;;;;;;;4.11;73.78;100550.66;5031068;28;20029;-61
2022/12/09 07:28:21;;;;;;;52.50;35.90;;;;;;;4.13;73.49;100539.47;5030179;28;20060;-61
2022/12/09 07:30:46;;;;;;;54.17;36.72;;;;;;;4.09;73.01;100547.28;5031421;28;20108;-61
2022/12/09 07:33:11;;;;;;;53.80;35.90;;;;;;;4.07;73.37;100543.06;5018560;28;20393;-60
2022/12/09 07:35:36;;;;;;;51.55;35.25;;;;;;;4.04;73.06;100541.59;5029880;28;20026;-61
2022/12/09 07:38:02;;;;;;;51.97;35.50;;;;;;;4.03;73.54;100545.41;5030801;28;20534;-61
2022/12/09 07:40:27;;;;;;;48.03;33.97;;;;;;;4.05;73.20;100550.66;5030498;28;20045;-61
2022/12/09 07:42:52;;;;;;;50.60;34.35;;;;;;;4.04;72.60;100554.47;5030841;28;20029;-61
2022/12/09 07:45:17;;;;;;;50.03;34.70;;;;;;;4.04;72.50;100549.81;5031120;28;20026;-62
2022/12/09 07:47:43;;;;;;;50.03;33.63;;;;;;;4.05;72.61;100554.28;5030399;28;20650;-61
2022/12/09 07:50:08;;;;;;;47.65;32.45;;;;;;;4.03;72.79;100561.03;5019574;28;20044;-61
2022/12/09 07:52:34;;;;;;;50.38;34.35;;;;;;;4.00;72.32;100562.31;5025748;28;20477;-60
2022/12/09 07:55:00;;;;;;;48.53;33.05;;;;;;;4.01;72.32;100561.28;5029514;28;20041;-61
2022/12/09 07:57:26;;;;;;;49.78;33.08;;;;;;;4.00;72.20;100565.06;5028320;28;20025;-60
2022/12/09 07:59:52;;;;;;;50.30;34.30;;;;;;;4.00;72.24;100562.31;5020564;28;20038;-60
2022/12/09 08:02:17;;;;;;;49.97;34.83;;;;;;;3.98;72.54;100556.22;5024902;28;20037;-61
2022/12/09 08:04:42;;;;;;;50.38;34.03;;;;;;;3.94;72.12;100564.03;5023450;28;20645;-60
2022/12/09 08:07:08;;;;;;;49.20;34.53;;;;;;;3.97;72.08;100565.50;5027833;28;20108;-60
2022/12/09 08:09:36;;;;;;;47.20;33.65;;;;;;;3.95;72.53;100562.13;5024200;28;20374;-60
2022/12/09 08:12:01;;;;;;;51.60;33.50;;;;;;;3.97;72.43;100562.75;5028602;28;20026;-60
2022/12/09 08:14:26;;;;;;;49.60;34.38;;;;;;;3.99;72.20;100559.78;5026382;28;20033;-59
2022/12/09 08:16:51;;;;;;;39.38;26.23;;;;;;;4.39;79.51;100561.28;5023042;28;20037;-60
2022/12/09 08:19:17;;;;;;;50.58;34.50;;;;;;;4.30;73.85;100559.03;5029430;28;20087;-59
2022/12/09 08:21:42;;;;;;;50.15;33.80;;;;;;;4.25;72.53;100561.59;5028310;28;20033;-59
2022/12/09 08:24:09;;;;;;;52.35;34.65;;;;;;;4.18;72.66;100564.34;5026843;28;20025;-60
2022/12/09 08:26:37;;;;;;;47.55;33.75;;;;;;;4.15;72.50;100562.88;5027966;28;20037;-61
2022/12/09 08:29:07;;;;;;;53.15;35.40;;;;;;;4.14;72.38;100571.34;5032678;28;20074;-60
2022/12/09 08:31:32;;;;;;;50.10;34.38;;;;;;;4.09;72.29;100563.78;5033461;28;20112;-60
2022/12/09 08:33:57;;;;;;;53.40;34.65;;;;;;;4.09;72.00;100562.94;5014845;28;20505;-60
2022/12/09 08:36:26;;;;;;;49.13;32.70;;;;;;;4.08;72.41;100562.06;5025460;28;20099;-61
2022/12/09 08:38:52;;;;;;;49.65;32.92;;;;;;;4.08;72.30;100570.31;5024712;28;20038;-61
2022/12/09 08:41:33;;;;;;;47.15;32.03;;;;;;;4.05;71.83;100562.53;5027781;28;20655;-61
2022/12/09 08:44:20;;;;;;;49.75;32.20;;;;;;;4.02;71.88;100556.63;5020422;28;20029;-60
2022/12/09 08:46:48;;;;;;;50.97;34.22;;;;;;;3.99;72.34;100557.03;5026964;28;20057;-60
2022/12/09 08:49:18;;;;;;;49.78;33.55;;;;;;;3.96;72.06;100558.31;5022922;28;20116;-69
2022/12/09 08:51:45;;;;;;;49.20;32.75;;;;;;;3.96;72.28;100561.06;5013351;28;20411;-61
2022/12/09 08:54:10;;;;;;;50.33;34.33;;;;;;;3.95;72.07;100553.88;5027598;28;20084;-61
2022/12/09 08:56:44;;;;;;;52.58;35.78;;;;;;;3.93;72.07;100556.88;5024140;28;20034;-61
2022/12/09 08:59:10;;;;;;;54.05;35.08;;;;;;;3.93;71.61;100558.78;5029366;28;20036;-61
2022/12/09 09:01:35;;;;;;;57.13;36.42;;;;;;;3.95;72.32;100562.13;5017582;28;20037;-61
2022/12/09 09:04:03;;;;;;;54.70;34.85;;;;;;;3.92;71.82;100557.06;5035608;28;20084;-60
2022/12/09 09:06:28;;;;;;;56.33;35.08;;;;;;;3.92;71.62;100563.38;5019984;28;20030;-60
2022/12/09 09:08:57;;;;;;;53.60;34.55;;;;;;;3.93;71.97;100564.25;5020893;28;20028;-61
2022/12/09 09:11:23;;;;;;;53.63;35.30;;;;;;;3.93;72.20;100570.59;5031973;28;21569;-60
2022/12/09 09:13:52;;;;;;;51.08;33.70;;;;;;;3.91;71.85;100569.94;5021972;28;20061;-61
2022/12/09 09:16:22;;;;;;;50.92;35.60;;;;;;;3.92;72.57;100579.88;5016364;28;20022;-60
2022/12/09 09:18:48;;;;;;;52.60;34.95;;;;;;;3.90;72.21;100576.50;5036090;28;20041;-60
2022/12/09 09:21:20;;;;;;;56.00;35.20;;;;;;;3.90;72.57;100578.41;5031789;28;20029;-61
2022/12/09 09:23:47;;;;;;;55.67;33.85;;;;;;;3.93;72.46;100578.81;5024486;28;20040;-60
2022/12/09 09:26:14;;;;;;;55.75;35.60;;;;;;;3.92;72.48;100585.34;5024652;28;20064;-60
2022/12/09 09:28:40;;;;;;;52.85;35.17;;;;;;;3.97;72.99;100584.72;5035292;28;20029;-62
2022/12/09 09:31:07;;;;;;;55.28;36.03;;;;;;;4.07;73.12;100582.34;5028764;28;20033;-61
2022/12/09 09:33:33;;;;;;;56.30;36.70;;;;;;;4.16;72.89;100577.44;5030262;28;20029;-61
2022/12/09 09:36:01;;;;;;;56.65;35.97;;;;;;;4.27;72.71;100581.44;5028234;28;20060;-61
2022/12/09 09:38:27;;;;;;;56.53;35.15;;;;;;;4.35;71.94;100581.19;5021685;28;20173;-59
2022/12/09 09:40:54;;;;;;;50.08;33.50;;;;;;;4.33;71.92;100584.16;5025580;28;20488;-59
2022/12/09 09:43:24;;;;;;;51.50;33.55;;;;;;;4.33;71.79;100580.56;5041624;28;20119;-58
2022/12/09 09:45:51;;;;;;;54.55;33.97;;;;;;;4.31;71.55;100578.03;5024668;28;20135;-60
2022/12/09 09:48:21;;;;;;;56.08;34.00;;;;;;;4.39;71.50;100579.69;5028098;28;20128;-59
2022/12/09 09:51:03;;;;;;;47.15;31.85;;;;;;;4.55;71.28;100575.56;5032908;28;20035;-64
2022/12/09 09:53:34;;;;;;;42.17;28.48;;;;;;;4.67;70.32;100568.31;5038029;28;20064;-64
2022/12/09 09:56:13;;;;;;;42.70;29.05;;;;;;;4.79;70.29;100562.94;5024001;28;20759;-59
2022/12/09 09:58:59;;;;;;;47.22;31.17;;;;;;;4.97;70.04;100574.03;5026915;28;20029;-59
2022/12/09 10:01:30;;;;;;;48.38;31.58;;;;;;;5.11;69.50;100569.28;5019812;28;20037;-59
2022/12/09 10:04:24;;;;;;;43.83;29.95;;;;;;;5.30;68.58;100554.47;5017972;28;20457;-59
2022/12/09 10:07:21;;;;;;;41.80;26.63;;;;;;;5.52;70.66;100563.19;5031313;28;20036;-59
2022/12/09 10:10:05;;;;;;;52.92;30.83;;;;;;;5.61;69.44;100555.44;5020680;28;20056;-59
2022/12/09 10:12:55;;;;;;;47.97;31.77;;;;;;;5.55;67.77;100572.91;5022380;28;20120;-58
2022/12/09 10:15:33;;;;;;;46.92;29.27;;;;;;;5.45;68.12;100573.41;5025532;28;20040;-60
2022/12/09 10:18:14;;;;;;;43.30;29.73;;;;;;;5.32;67.36;100573.53;5029081;28;20033;-60
2022/12/09 10:20:40;;;;;;;41.90;29.02;;;;;;;5.18;67.55;100568.13;5020974;28;20120;-60
2022/12/09 10:23:12;;;;;;;45.92;30.40;;;;;;;5.08;68.00;100565.06;5037024;28;20028;-59
2022/12/09 10:25:54;;;;;;;51.13;32.75;;;;;;;5.04;68.48;100568.47;5047137;28;20103;-60
2022/12/09 10:28:29;;;;;;;48.63;30.67;;;;;;;4.94;68.40;100571.72;5044547;28;20117;-59
2022/12/09 10:30:55;;;;;;;52.28;32.42;;;;;;;4.89;68.41;100564.13;5037075;28;20078;-60
2022/12/09 10:33:34;;;;;;;46.95;31.65;;;;;;;4.88;69.07;100561.63;5013605;28;20077;-60
2022/12/09 10:36:00;;;;;;;53.13;32.65;;;;;;;4.83;68.96;100566.94;5043269;28;20128;-60
2022/12/09 10:38:28;;;;;;;51.90;32.60;;;;;;;4.78;68.78;100561.25;5028006;28;20034;-59
2022/12/09 10:43:33;;;;;;;50.08;32.13;;;;;;;4.76;69.03;100557.91;5029011;28;20674;-60
2022/12/09 10:44:24;;;;;;;43.85;30.23;;;;;;;4.81;69.47;100563.56;5030017;28;20388;-59
2022/12/09 10:47:01;;;;;;;42.42;28.67;;;;;;;4.74;68.84;100555.34;5025719;28;20041;-59
2022/12/09 10:49:27;;;;;;;41.80;27.45;;;;;;;4.71;68.67;100560.47;5019407;28;20018;-59
2022/12/09 10:51:53;;;;;;;41.05;27.45;;;;;;;4.73;69.12;100569.34;5012751;28;20433;-59
2022/12/09 10:54:25;;;;;;;48.53;29.75;;;;;;;4.79;68.75;100560.19;5023413;28;20029;-59
2022/12/09 10:57:00;;;;;;;45.25;29.52;;;;;;;4.90;68.73;100554.81;5030430;28;20564;-60
2022/12/09 10:59:29;;;;;;;49.92;30.10;;;;;;;4.97;68.29;100552.03;5030205;28;20034;-59
2022/12/09 11:02:01;;;;;;;46.00;28.40;;;;;;;4.99;67.57;100558.16;5028796;28;20036;-59
2022/12/09 11:04:31;;;;;;;44.20;27.42;;;;;;;4.95;67.74;100548.63;5030237;28;20405;-59
2022/12/09 11:07:10;;;;;;;43.20;27.98;;;;;;;4.91;68.27;100548.28;5025862;28;20029;-59
2022/12/09 11:09:43;;;;;;;41.47;26.42;;;;;;;4.84;67.26;100552.97;5031525;28;20025;-59
2022/12/09 11:12:27;;;;;;;33.05;20.42;;;;;;;4.80;66.73;100553.66;5013346;28;20041;-59
2022/12/09 11:14:57;;;;;;;27.63;19.42;;;;;;;4.79;65.79;100552.78;5023560;28;20079;-60
2022/12/09 11:17:28;;;;;;;30.77;19.85;;;;;;;4.83;66.26;100550.44;5031119;28;20021;-60
2022/12/09 11:20:18;;;;;;;27.90;18.75;;;;;;;4.86;65.44;100552.75;5028223;28;20115;-60
2022/12/09 11:22:57;;;;;;;33.08;20.15;;;;;;;4.89;65.33;100547.63;5017945;28;20050;-59
2022/12/09 11:25:26;;;;;;;31.27;20.30;;;;;;;4.88;64.78;100553.38;5021840;28;20454;-58